Overview Statistics Trail Chart Weather Telemetry Raw packets
 

This is the latest recevied weather packets stored in our database for station/object DL4SAV. If no packets are shown the sender has not sent any weather packets the latest 10 day(s).

<< 93 94 95 96 97 98 99 >>
Time Temp. Humidity Pressure Rain* Wind** Luminosity Snow
1787913177 19.44° C 85% 1013.4 hPa 1.02 mm - - -
1787912877 18.89° C 85% 1013.6 hPa 3.56 mm - - -
1787912576 18.33° C 84% 1013.9 hPa 4.57 mm - - -
1787912276 17.78° C 83% 1014.1 hPa 5.08 mm - - -
1787911976 17.78° C 83% 1013.9 hPa 5.08 mm - - -
1787911676 17.22° C 83% 1014.3 hPa 5.08 mm - - -
1787911375 17.22° C 82% 1014.5 hPa 5.08 mm - - -
1787911075 17.22° C 82% 1014.7 hPa 5.08 mm - - -
1787910775 17.22° C 81% 1014.9 hPa 5.08 mm - - -
1787910475 17.22° C 81% 1015.2 hPa 5.08 mm - - -
1787910174 17.78° C 80% 1015.3 hPa 5.08 mm - - -
1787909874 18.33° C 79% 1015.6 hPa 4.57 mm - - -
1787909574 18.89° C 79% 1016.5 hPa 3.56 mm - - -
1787909273 20° C 77% 1016.4 hPa 1.52 mm - - -
1787908973 21.11° C 76% 1015.6 hPa 0.51 mm - - -
1787908673 22.22° C 75% 1014.8 hPa 0 mm - - -
1787908372 22.78° C 71% 1014.2 hPa 0 mm - - -
1787908072 23.33° C 68% 1013.8 hPa 0 mm - - -
1787907772 23.89° C 66% 1013.2 hPa 0 mm - - -
1787907472 24.44° C 64% 1012.2 hPa 0 mm - - -
1787907171 24.44° C 63% 1012 hPa 0 mm - - -
1787906871 25° C 62% 1011.9 hPa 0 mm - - -
1787906571 25° C 62% 1011.5 hPa 0 mm - - -
1787906270 25.56° C 62% 1011.4 hPa 0 mm - - -
1787905970 25.56° C 62% 1011.1 hPa 0 mm - - -

* Rain latest hour (hover to see other rain measurements)
** Current wind speed in m/s (hover to see current wind gust speed)